createdAt,value
2022-12-13T00:00:08.469Z,98.43
2022-12-13T00:03:14.145Z,98.25
2022-12-13T00:06:15.737Z,98.22
2022-12-13T00:09:18.449Z,97.35
2022-12-13T00:12:19.858Z,97.03
2022-12-13T00:15:21.250Z,97.39
2022-12-13T00:18:22.672Z,98.82
2022-12-13T00:21:27.718Z,98.51
2022-12-13T00:24:29.105Z,98.68
2022-12-13T00:27:30.675Z,98.45
2022-12-13T00:30:32.170Z,98.41
2022-12-13T00:33:34.204Z,98.43
2022-12-13T00:36:35.595Z,97.70
2022-12-13T00:39:37.074Z,97.41
2022-12-13T00:42:38.468Z,97.82
2022-12-13T00:45:40.499Z,97.88
2022-12-13T00:48:42.888Z,97.63
2022-12-13T00:51:44.285Z,97.45
2022-12-13T00:54:45.690Z,97.80
2022-12-13T00:57:47.125Z,97.59
2022-12-13T01:00:48.547Z,97.35
2022-12-13T01:03:51.270Z,96.49
2022-12-13T01:06:53.794Z,97.80
2022-12-13T01:09:58.118Z,97.06
2022-12-13T01:12:59.875Z,97.84
2022-12-13T01:16:03.683Z,97.80
2022-12-13T01:19:06.170Z,98.67
2022-12-13T01:22:08.185Z,99.78
2022-12-13T01:25:10.721Z,98.86
2022-12-13T01:28:12.125Z,98.55
2022-12-13T01:31:17.607Z,98.11
2022-12-13T01:34:21.107Z,98.33
2022-12-13T01:37:28.039Z,98.19
2022-12-13T01:40:29.650Z,96.96
2022-12-13T01:43:37.336Z,97.42
2022-12-13T01:46:38.709Z,97.59
2022-12-13T01:49:40.138Z,97.83
2022-12-13T01:52:44.136Z,97.17
2022-12-13T01:55:50.312Z,97.11
2022-12-13T01:58:55.242Z,97.74
2022-12-13T02:02:01.122Z,97.44
2022-12-13T02:05:41.475Z,98.44
2022-12-13T02:08:44.740Z,98.97
2022-12-13T02:11:46.755Z,98.96
2022-12-13T02:14:48.390Z,99.35
2022-12-13T02:18:03.058Z,99.26
2022-12-13T02:21:21.220Z,100.00
2022-12-13T02:24:40.249Z,98.65
2022-12-13T02:28:00.491Z,98.19
2022-12-13T02:31:08.474Z,97.57
2022-12-13T02:34:26.922Z,97.22
2022-12-13T02:37:50.700Z,97.26
2022-12-13T02:41:10.439Z,96.93
2022-12-13T02:44:22.832Z,97.16
2022-12-13T02:47:27.664Z,96.42
2022-12-13T02:50:31.728Z,96.41
2022-12-13T02:53:34.694Z,97.28
2022-12-13T02:56:36.170Z,96.86
2022-12-13T02:59:39.727Z,97.21
2022-12-13T03:02:59.624Z,97.04
2022-12-13T03:06:34.082Z,97.04
2022-12-13T03:09:48.745Z,96.21
2022-12-13T03:13:38.200Z,96.87
2022-12-13T03:16:43.664Z,96.76
2022-12-13T03:19:45.104Z,97.15
2022-12-13T03:22:46.524Z,97.23
2022-12-13T03:25:52.097Z,97.27
2022-12-13T03:28:53.719Z,96.82
2022-12-13T03:31:55.232Z,95.83
2022-12-13T03:35:00.922Z,97.19
2022-12-13T03:38:04.042Z,96.91
2022-12-13T03:41:09.790Z,97.13
2022-12-13T03:44:11.425Z,95.62
2022-12-13T03:47:12.852Z,95.80
2022-12-13T03:50:26.763Z,95.86
2022-12-13T03:53:32.703Z,95.96
2022-12-13T03:56:35.771Z,96.32
2022-12-13T03:59:38.965Z,96.17
2022-12-13T04:02:40.481Z,95.74
2022-12-13T04:05:42.561Z,95.75
2022-12-13T04:08:44.043Z,96.03
2022-12-13T04:12:04.086Z,95.14
2022-12-13T04:15:06.759Z,95.09
2022-12-13T04:18:08.180Z,94.83
2022-12-13T04:21:09.736Z,95.00
2022-12-13T04:24:11.137Z,95.00
2022-12-13T04:27:12.539Z,95.56
2022-12-13T04:30:14.028Z,94.98
2022-12-13T04:33:15.419Z,93.77
2022-12-13T04:36:31.659Z,94.51
2022-12-13T04:39:34.920Z,94.63
2022-12-13T04:42:36.424Z,94.87
2022-12-13T04:45:37.863Z,94.86
2022-12-13T04:48:39.756Z,95.65
2022-12-13T04:51:41.177Z,95.97
2022-12-13T04:54:56.128Z,94.91
2022-12-13T04:57:57.705Z,95.58
2022-12-13T05:00:59.207Z,95.09
2022-12-13T05:04:04.126Z,93.90
2022-12-13T05:07:05.685Z,94.57
2022-12-13T05:10:07.642Z,94.85
2022-12-13T05:13:09.043Z,95.39
2022-12-13T05:16:10.556Z,94.82
2022-12-13T05:19:11.994Z,93.61
2022-12-13T05:22:19.805Z,93.56
2022-12-13T05:25:22.391Z,92.65
2022-12-13T05:28:28.782Z,93.00
2022-12-13T05:31:30.597Z,93.21
2022-12-13T05:34:32.057Z,93.88
2022-12-13T05:37:34.879Z,93.05
2022-12-13T05:40:36.499Z,93.63
2022-12-13T05:43:42.702Z,93.96
2022-12-13T05:46:45.160Z,92.58
2022-12-13T05:49:46.569Z,92.79
2022-12-13T05:52:48.061Z,93.83
2022-12-13T05:55:49.707Z,92.97
2022-12-13T05:58:53.637Z,92.08
2022-12-13T06:01:56.885Z,91.16
2022-12-13T06:04:58.383Z,91.99
2022-12-13T06:08:01.335Z,90.96
2022-12-13T06:11:11.556Z,91.71
2022-12-13T06:14:21.567Z,90.55
2022-12-13T06:17:25.155Z,90.29
2022-12-13T06:20:26.800Z,88.44
2022-12-13T06:23:30.632Z,89.15
2022-12-13T06:26:32.645Z,89.76
2022-12-13T06:29:34.190Z,89.43
2022-12-13T06:32:38.930Z,88.06
2022-12-13T06:35:43.986Z,88.52
2022-12-13T06:38:45.584Z,87.95
2022-12-13T06:41:47.115Z,88.44
2022-12-13T06:44:51.676Z,89.14
2022-12-13T06:47:59.978Z,88.68
2022-12-13T06:51:03.412Z,88.46
2022-12-13T06:54:04.849Z,88.95
2022-12-13T06:57:06.249Z,89.16
2022-12-13T07:00:09.113Z,89.01
2022-12-13T07:03:12.365Z,88.09
2022-12-13T07:06:16.298Z,88.26
2022-12-13T07:09:17.788Z,88.85
2022-12-13T07:12:20.835Z,88.80
2022-12-13T07:15:22.263Z,88.94
2022-12-13T07:18:23.758Z,89.65
2022-12-13T07:21:25.364Z,90.52
2022-12-13T07:24:26.869Z,89.37
2022-12-13T07:27:28.268Z,89.92
2022-12-13T07:30:41.090Z,89.70
2022-12-13T07:33:43.186Z,89.85
2022-12-13T07:36:44.594Z,90.52
2022-12-13T07:39:46.152Z,90.19
2022-12-13T07:42:53.187Z,89.50
2022-12-13T07:45:54.985Z,89.35
2022-12-13T07:49:01.541Z,88.98
2022-12-13T07:52:03.498Z,88.75
2022-12-13T07:55:06.045Z,89.86
2022-12-13T07:58:10.437Z,87.97
2022-12-13T08:01:14.447Z,86.97
2022-12-13T08:04:15.865Z,86.75
2022-12-13T08:07:17.301Z,86.55
2022-12-13T08:10:18.796Z,87.14
2022-12-13T08:13:21.503Z,87.26
2022-12-13T08:16:27.615Z,87.24
2022-12-13T08:19:30.399Z,86.12
2022-12-13T08:22:35.731Z,86.42
2022-12-13T08:25:37.871Z,87.07
2022-12-13T08:28:39.293Z,86.24
2022-12-13T08:31:40.911Z,86.65
2022-12-13T08:34:43.178Z,86.04
2022-12-13T08:37:44.584Z,84.52
2022-12-13T08:40:45.961Z,86.07
2022-12-13T08:43:47.734Z,83.12
2022-12-13T08:46:49.272Z,83.49
2022-12-13T08:49:50.902Z,83.51
2022-12-13T08:52:52.610Z,82.67
2022-12-13T08:55:53.988Z,82.10
2022-12-13T08:58:55.363Z,81.33
2022-12-13T09:02:01.602Z,81.36
2022-12-13T09:05:08.068Z,81.72
2022-12-13T09:08:23.369Z,80.03
2022-12-13T09:11:34.636Z,81.21
2022-12-13T09:14:45.708Z,80.96
2022-12-13T09:17:52.359Z,80.49
2022-12-13T09:20:54.461Z,79.70
2022-12-13T09:24:24.724Z,79.69
2022-12-13T09:27:28.955Z,79.87
2022-12-13T09:30:31.488Z,78.45
2022-12-13T09:33:40.735Z,78.51
2022-12-13T09:36:43.242Z,78.42
2022-12-13T09:39:44.660Z,77.79
2022-12-13T09:43:04.535Z,77.58
2022-12-13T09:46:23.681Z,77.04
2022-12-13T09:49:35.068Z,76.86
2022-12-13T09:52:39.899Z,76.67
2022-12-13T09:55:52.293Z,76.15
2022-12-13T09:58:56.593Z,76.47
2022-12-13T10:02:14.337Z,75.58
2022-12-13T10:05:34.260Z,73.98
2022-12-13T10:08:46.969Z,73.93
2022-12-13T10:11:53.984Z,73.24
2022-12-13T10:14:59.939Z,73.77
2022-12-13T10:18:04.201Z,74.72
2022-12-13T10:21:14.197Z,73.25
2022-12-13T10:24:32.918Z,73.17
2022-12-13T10:27:42.365Z,73.84
2022-12-13T10:30:46.388Z,73.90
2022-12-13T10:33:54.683Z,74.41
2022-12-13T10:36:59.523Z,74.50
2022-12-13T10:40:01.508Z,74.07
2022-12-13T10:43:22.159Z,73.66
2022-12-13T10:46:25.391Z,72.62
2022-12-13T10:49:32.050Z,72.99
2022-12-13T10:52:48.026Z,72.30
2022-12-13T10:55:55.097Z,71.42
2022-12-13T10:59:22.518Z,70.39
2022-12-13T11:02:39.936Z,70.64
2022-12-13T11:05:42.029Z,70.53
2022-12-13T11:08:43.863Z,70.15
2022-12-13T11:11:45.291Z,69.56
2022-12-13T11:14:54.189Z,69.86
2022-12-13T11:18:02.985Z,69.84
2022-12-13T11:21:07.615Z,69.85
2022-12-13T11:24:23.109Z,70.26
2022-12-13T11:27:39.649Z,70.12
2022-12-13T11:30:55.019Z,70.13
2022-12-13T11:34:13.409Z,70.77
2022-12-13T11:37:20.735Z,70.33
2022-12-13T11:40:28.507Z,69.51
2022-12-13T11:43:39.535Z,68.83
2022-12-13T11:46:50.359Z,69.08
2022-12-13T11:49:52.667Z,69.53
2022-12-13T11:52:59.149Z,69.63
2022-12-13T11:56:07.283Z,69.47
2022-12-13T11:59:24.424Z,68.49
2022-12-13T12:02:36.200Z,68.92
2022-12-13T12:05:41.025Z,69.19
2022-12-13T12:08:47.413Z,68.93
2022-12-13T12:12:00.001Z,69.30
2022-12-13T12:15:30.735Z,68.66
2022-12-13T12:18:33.345Z,68.52
2022-12-13T12:22:14.175Z,68.28
2022-12-13T12:25:30.975Z,69.13
2022-12-13T12:28:55.164Z,69.40
2022-12-13T12:32:18.084Z,68.35
2022-12-13T12:35:46.053Z,67.67
2022-12-13T12:39:19.956Z,67.77
2022-12-13T12:43:14.032Z,68.24
2022-12-13T12:46:35.449Z,68.73
2022-12-13T12:49:57.490Z,68.55
2022-12-13T12:53:23.266Z,68.79
2022-12-13T12:56:47.470Z,69.71
2022-12-13T13:00:09.301Z,68.78
2022-12-13T13:03:24.106Z,69.47
2022-12-13T13:06:29.453Z,69.37
2022-12-13T13:09:31.867Z,69.38
2022-12-13T13:12:43.013Z,69.42
2022-12-13T13:15:54.379Z,69.63
2022-12-13T13:18:57.718Z,69.31
2022-12-13T13:22:01.410Z,69.51
2022-12-13T13:25:06.489Z,69.59
2022-12-13T13:28:17.093Z,69.14
2022-12-13T13:31:18.608Z,69.13
2022-12-13T13:34:25.692Z,69.07
2022-12-13T13:37:43.778Z,69.29
2022-12-13T13:40:45.327Z,69.27
2022-12-13T13:43:46.831Z,68.41
2022-12-13T13:47:12.337Z,68.47
2022-12-13T13:50:48.642Z,68.59
2022-12-13T13:54:06.566Z,68.78
2022-12-13T13:58:08.319Z,68.57
2022-12-13T14:01:31.337Z,69.01
2022-12-13T14:05:09.397Z,68.52
2022-12-13T14:08:36.003Z,69.25
2022-12-13T14:12:06.824Z,69.16
2022-12-13T14:15:23.403Z,68.68
2022-12-13T14:18:58.109Z,68.52
2022-12-13T14:21:59.523Z,68.48
2022-12-13T14:25:19.920Z,69.08
2022-12-13T14:28:51.760Z,69.01
2022-12-13T14:31:53.422Z,68.82
2022-12-13T14:35:25.297Z,69.19
2022-12-13T14:38:24.132Z,69.69
2022-12-13T14:41:25.578Z,70.25
2022-12-13T14:44:34.376Z,69.89
2022-12-13T14:47:36.353Z,69.58
2022-12-13T14:50:40.061Z,69.62
2022-12-13T14:53:41.766Z,69.59
2022-12-13T14:57:18.118Z,69.94
2022-12-13T15:00:33.639Z,70.45
2022-12-13T15:03:35.255Z,70.00
2022-12-13T15:06:36.829Z,69.92
2022-12-13T15:09:41.497Z,70.88
2022-12-13T15:12:44.563Z,70.98
2022-12-13T15:15:53.725Z,71.50
2022-12-13T15:19:31.172Z,71.74
2022-12-13T15:22:37.436Z,71.55
2022-12-13T15:26:08.731Z,71.15
2022-12-13T15:29:14.516Z,71.60
2022-12-13T15:32:19.183Z,71.42
2022-12-13T15:35:27.292Z,72.04
2022-12-13T15:38:29.502Z,72.34
2022-12-13T15:41:41.611Z,72.44
2022-12-13T15:44:53.954Z,72.42
2022-12-13T15:47:55.797Z,71.88
2022-12-13T15:51:29.823Z,72.09
2022-12-13T15:54:33.059Z,71.94
2022-12-13T15:57:48.029Z,71.57
2022-12-13T16:00:49.700Z,71.47
2022-12-13T16:03:51.277Z,71.63
2022-12-13T16:06:53.377Z,71.97
2022-12-13T16:09:56.075Z,72.29
2022-12-13T16:13:07.833Z,71.71
2022-12-13T16:16:10.026Z,72.35
2022-12-13T16:19:18.055Z,73.02
2022-12-13T16:22:21.683Z,73.30
2022-12-13T16:25:23.451Z,72.76
2022-12-13T16:28:26.303Z,72.62
2022-12-13T16:31:35.844Z,72.75
2022-12-13T16:34:38.116Z,73.02
2022-12-13T16:37:39.510Z,73.27
2022-12-13T16:40:43.997Z,73.45
2022-12-13T16:44:04.020Z,73.68
2022-12-13T16:47:21.956Z,73.40
2022-12-13T16:50:25.888Z,74.00
2022-12-13T16:53:27.768Z,73.00
2022-12-13T16:56:29.480Z,73.12
2022-12-13T16:59:30.863Z,73.38
2022-12-13T17:02:32.300Z,73.34
2022-12-13T17:05:35.149Z,73.64
2022-12-13T17:08:36.915Z,74.11
2022-12-13T17:11:38.440Z,74.56
2022-12-13T17:14:39.828Z,75.14
2022-12-13T17:17:44.661Z,75.64
2022-12-13T17:20:47.146Z,75.35
2022-12-13T17:24:01.333Z,75.56
2022-12-13T17:27:02.776Z,76.33
2022-12-13T17:30:09.300Z,75.66
2022-12-13T17:33:13.187Z,75.81
2022-12-13T17:36:15.835Z,76.02
2022-12-13T17:39:17.633Z,75.88
2022-12-13T17:42:19.050Z,75.61
2022-12-13T17:45:21.503Z,75.74
2022-12-13T17:48:23.127Z,76.47
2022-12-13T17:51:24.725Z,76.35
2022-12-13T17:54:26.352Z,76.09
2022-12-13T17:57:27.835Z,76.31
2022-12-13T18:00:29.285Z,76.87
2022-12-13T18:03:30.963Z,77.23
2022-12-13T18:06:33.753Z,76.59
2022-12-13T18:09:35.154Z,76.08
2022-12-13T18:12:36.577Z,76.61
2022-12-13T18:15:38.017Z,77.05
2022-12-13T18:18:41.593Z,77.10
2022-12-13T18:21:46.149Z,76.33
2022-12-13T18:24:47.572Z,77.07
2022-12-13T18:27:49.004Z,77.17
2022-12-13T18:30:50.454Z,77.62
2022-12-13T18:33:55.672Z,77.68
2022-12-13T18:36:57.068Z,77.41
2022-12-13T18:39:58.595Z,77.92
2022-12-13T18:43:00.032Z,77.43
2022-12-13T18:46:04.053Z,77.58
2022-12-13T18:49:06.393Z,76.95
2022-12-13T18:52:08.155Z,76.59
2022-12-13T18:55:09.821Z,76.60
2022-12-13T18:58:11.239Z,76.71
2022-12-13T19:01:13.435Z,77.13
2022-12-13T19:04:14.989Z,76.46
2022-12-13T19:07:16.963Z,75.91
2022-12-13T19:10:18.593Z,75.64
2022-12-13T19:13:20.500Z,75.71
2022-12-13T19:16:23.327Z,75.83
2022-12-13T19:19:24.771Z,75.89
2022-12-13T19:22:26.215Z,75.87
2022-12-13T19:25:27.618Z,75.89
2022-12-13T19:28:29.020Z,74.63
2022-12-13T19:31:32.468Z,75.67
2022-12-13T19:34:34.184Z,75.27
2022-12-13T19:37:38.999Z,75.50
2022-12-13T19:40:42.509Z,74.88
2022-12-13T19:43:49.125Z,75.10
2022-12-13T19:46:53.881Z,74.52
2022-12-13T19:49:55.481Z,74.47
2022-12-13T19:52:56.875Z,74.69
2022-12-13T19:55:58.745Z,74.71
2022-12-13T19:59:00.116Z,74.20
2022-12-13T20:02:01.922Z,74.14
2022-12-13T20:05:03.640Z,74.54
2022-12-13T20:08:05.686Z,74.27
2022-12-13T20:11:16.979Z,74.11
2022-12-13T20:14:18.465Z,73.31
2022-12-13T20:17:19.963Z,73.83
2022-12-13T20:20:21.506Z,73.32
2022-12-13T20:23:22.949Z,73.58
2022-12-13T20:26:27.428Z,73.72
2022-12-13T20:29:28.883Z,73.74
2022-12-13T20:32:30.578Z,73.62
2022-12-13T20:35:31.995Z,72.88
2022-12-13T20:38:34.172Z,72.56
2022-12-13T20:41:36.804Z,72.81
2022-12-13T20:44:38.200Z,72.78
2022-12-13T20:47:39.818Z,72.49
2022-12-13T20:50:41.296Z,73.21
2022-12-13T20:53:49.620Z,72.14
2022-12-13T20:56:51.127Z,72.37
2022-12-13T20:59:52.516Z,72.09
2022-12-13T21:02:53.930Z,72.64
2022-12-13T21:05:56.135Z,72.96
2022-12-13T21:09:02.978Z,71.80
2022-12-13T21:12:04.646Z,72.07
2022-12-13T21:15:07.305Z,72.81
2022-12-13T21:18:08.803Z,72.39
2022-12-13T21:21:11.252Z,72.74
2022-12-13T21:24:14.768Z,73.01
2022-12-13T21:27:16.143Z,72.19
2022-12-13T21:30:17.601Z,71.89
2022-12-13T21:33:18.997Z,71.54
2022-12-13T21:36:23.701Z,71.70
2022-12-13T21:39:29.203Z,72.29
2022-12-13T21:42:30.670Z,71.93
2022-12-13T21:45:33.055Z,71.47
2022-12-13T21:48:34.988Z,71.74
2022-12-13T21:51:36.381Z,71.74
2022-12-13T21:54:37.772Z,71.54
2022-12-13T21:57:59.841Z,71.79
2022-12-13T22:01:04.529Z,71.73
2022-12-13T22:04:07.243Z,71.95
2022-12-13T22:07:09.880Z,71.43
2022-12-13T22:10:11.288Z,71.99
2022-12-13T22:13:12.765Z,71.54
2022-12-13T22:16:14.179Z,71.30
2022-12-13T22:19:15.939Z,71.19
2022-12-13T22:22:18.593Z,71.07
2022-12-13T22:25:19.982Z,71.94
2022-12-13T22:28:21.395Z,71.84
2022-12-13T22:31:26.650Z,71.30
2022-12-13T22:34:31.509Z,71.72
2022-12-13T22:37:33.234Z,71.52
2022-12-13T22:40:37.317Z,71.05
2022-12-13T22:43:38.794Z,71.54
2022-12-13T22:46:40.880Z,71.01
2022-12-13T22:49:42.347Z,71.22
2022-12-13T22:52:43.807Z,71.22
2022-12-13T22:55:45.282Z,71.27
2022-12-13T22:58:52.103Z,71.40
2022-12-13T23:02:02.151Z,71.95
2022-12-13T23:05:04.933Z,71.35
2022-12-13T23:08:06.325Z,71.13
2022-12-13T23:11:26.877Z,71.31
2022-12-13T23:14:31.316Z,72.01
2022-12-13T23:17:33.729Z,71.49
2022-12-13T23:20:35.908Z,71.46
2022-12-13T23:23:37.397Z,71.93
2022-12-13T23:26:38.888Z,71.41
2022-12-13T23:29:40.391Z,70.80
2022-12-13T23:32:41.789Z,70.82
2022-12-13T23:35:43.313Z,71.91
2022-12-13T23:38:45.366Z,71.63
2022-12-13T23:41:46.856Z,71.23
2022-12-13T23:44:49.063Z,70.82
2022-12-13T23:47:51.056Z,71.48
2022-12-13T23:50:53.553Z,71.63
2022-12-13T23:53:55.237Z,71.66
2022-12-13T23:56:56.689Z,71.20
2022-12-13T23:59:58.096Z,71.70
